Landes Station, West Virginia
Current Conditions -  °F | °C
As of 6:55 AM on Thursday 23 Oct 2014 (Local Time) from KW99 Reporting Station
Overcast Overcast  
Wind Chill: 50°   Ceiling: 2900
Heat Index: 50°   Visibility: 10mi
Dew Point: 39°   Wind: 6mph
Humidity: 65%   Direction: 330°NNW
Pressure: 30.07"   Gusts: NA
Location:  38.9337°N, 79.1435°W
Report Text: KW99 231055Z AUTO 33005KT 10SM BKN029 OVC034 10/04 A3007 RMK AO2 T01010037
Loading
Personal Weather Stations






























Interactive Weather Map
Tropical Storm Tracking
New forecast layout! Learn more

10-Day Weather Forecast

Advertisements
Track Severe Weather on mobile